Time;durP1;ratioP1;P1;durP2;ratioP2;P2;SDS_P1;SDS_P2;PMS_P1;PMS_P2;Temp;Humidity;BMP_temperature;BMP_pressure;BME280_temperature;BME280_humidity;BME280_pressure;Samples;Min_cycle;Max_cycle;Signal;HPM_P1;HPM_P2
2023/09/01 00:01:49;;;;;;;0.82;0.73;;;;;;;20.18;56.35;99711.44;4468555;32;33583;-79
2023/09/01 00:04:19;;;;;;;1.23;0.80;;;;;;;20.27;56.21;99716.19;4459916;32;34435;-80
2023/09/01 00:06:48;;;;;;;1.33;0.70;;;;;;;20.15;56.59;99719.47;4473427;32;34225;-80
2023/09/01 00:09:16;;;;;;;0.88;0.62;;;;;;;20.08;56.63;99720.72;4459524;32;33469;-78
2023/09/01 00:11:45;;;;;;;0.47;0.45;;;;;;;20.22;56.15;99715.59;4460014;32;34311;-79
2023/09/01 00:14:14;;;;;;;0.70;0.60;;;;;;;20.12;56.22;99725.75;4460101;31;34207;-78
2023/09/01 00:16:43;;;;;;;1.48;0.77;;;;;;;19.90;56.52;99720.75;4471002;32;33624;-79
2023/09/01 00:19:13;;;;;;;1.75;0.95;;;;;;;20.08;56.21;99716.31;4475666;32;33928;-78
2023/09/01 00:21:42;;;;;;;1.03;0.77;;;;;;;20.14;55.97;99721.25;4475447;32;32868;-79
2023/09/01 00:24:11;;;;;;;0.82;0.57;;;;;;;20.11;55.86;99723.22;4475121;31;33186;-80
2023/09/01 00:26:40;;;;;;;1.42;1.30;;;;;;;19.95;56.28;99718.72;4468364;32;34651;-80
2023/09/01 00:29:08;;;;;;;1.30;0.80;;;;;;;19.95;56.24;99717.88;4478000;32;34739;-79
2023/09/01 00:31:37;;;;;;;0.77;0.55;;;;;;;19.87;56.33;99720.91;4473878;32;33688;-80
2023/09/01 00:34:06;;;;;;;3.37;0.95;;;;;;;19.78;56.85;99727.47;4466836;32;33358;-78
2023/09/01 00:36:38;;;;;;;;;;;;;;;19.72;57.09;99727.81;4460768;32;32942;-79
2023/09/01 00:39:08;;;;;;;0.45;0.45;;;;;;;19.72;56.94;99724.31;4468634;32;36021;-80
2023/09/01 00:41:37;;;;;;;0.80;0.60;;;;;;;19.66;57.02;99717.53;4469623;32;33625;-79
2023/09/01 00:44:05;;;;;;;1.15;0.65;;;;;;;19.61;56.99;99725.66;4469973;32;33243;-80
2023/09/01 00:46:35;;;;;;;0.75;0.60;;;;;;;19.55;57.32;99723.34;4469314;32;33453;-79
2023/09/01 00:49:04;;;;;;;1.98;0.90;;;;;;;19.53;57.38;99732.25;4463982;32;33771;-80
2023/09/01 00:51:33;;;;;;;1.42;0.70;;;;;;;19.51;57.65;99729.69;4469513;32;34249;-79
2023/09/01 00:54:04;;;;;;;1.77;0.70;;;;;;;19.47;57.85;99730.75;4471138;32;33448;-78
2023/09/01 00:56:33;;;;;;;1.05;0.80;;;;;;;19.46;57.95;99729.06;4469960;32;33777;-78
2023/09/01 00:59:02;;;;;;;1.33;0.90;;;;;;;19.14;58.79;99728.84;4464685;32;33782;-79
2023/09/01 01:01:31;;;;;;;1.75;0.98;;;;;;;19.29;58.66;99731.66;4472126;32;33819;-78
2023/09/01 01:04:00;;;;;;;1.48;0.73;;;;;;;19.22;58.97;99722.38;4472335;32;32869;-78
2023/09/01 01:06:43;;;;;;;0.90;0.70;;;;;;;19.14;58.94;99728.84;4465694;32;34441;-78
2023/09/01 01:09:26;;;;;;;2.12;1.15;;;;;;;19.16;58.95;99732.25;4465388;32;33952;-78
2023/09/01 01:12:00;;;;;;;0.60;0.60;;;;;;;19.01;59.46;99735.59;4473736;32;33824;-79
2023/09/01 01:14:35;;;;;;;0.98;0.80;;;;;;;18.79;60.13;99740.16;4471889;32;32882;-79
2023/09/01 01:17:06;;;;;;;0.98;0.60;;;;;;;19.10;59.31;99743.06;4475018;32;34305;-79
2023/09/01 01:19:48;;;;;;;0.90;0.60;;;;;;;18.92;59.76;99738.69;4459075;32;34607;-77
2023/09/01 01:22:21;;;;;;;0.77;0.77;;;;;;;18.68;60.52;99733.59;4459188;32;33793;-78
2023/09/01 01:24:51;;;;;;;1.12;0.60;;;;;;;18.98;59.85;99741.00;4471794;32;33538;-78
2023/09/01 01:27:20;;;;;;;0.62;0.52;;;;;;;18.93;60.00;99733.34;4472693;32;33558;-78
2023/09/01 01:29:49;;;;;;;0.73;0.62;;;;;;;19.07;59.62;99737.97;4466679;32;34787;-77
2023/09/01 01:32:18;;;;;;;1.40;0.85;;;;;;;18.84;60.25;99725.88;4472488;32;33900;-79
2023/09/01 01:34:52;;;;;;;1.42;0.80;;;;;;;19.05;59.71;99731.91;4464020;32;33785;-77
2023/09/01 01:37:28;;;;;;;0.75;0.60;;;;;;;19.05;59.71;99733.69;4465267;32;33506;-78
2023/09/01 01:40:04;;;;;;;1.37;0.98;;;;;;;18.67;60.79;99729.25;4464408;32;33656;-79
2023/09/01 01:42:34;;;;;;;1.48;0.70;;;;;;;18.74;60.73;99727.19;4458322;32;33588;-79
2023/09/01 01:45:04;;;;;;;1.30;0.80;;;;;;;18.72;60.79;99729.91;4464539;32;34024;-78
2023/09/01 01:47:34;;;;;;;1.03;0.80;;;;;;;18.75;60.64;99729.78;4463622;31;33126;-78
2023/09/01 01:50:03;;;;;;;2.33;0.90;;;;;;;18.61;61.37;99729.56;4474440;32;33423;-78
2023/09/01 01:52:31;;;;;;;1.35;0.88;;;;;;;18.69;60.81;99727.41;4465758;32;33968;-78
2023/09/01 01:55:02;;;;;;;1.30;0.90;;;;;;;18.80;60.76;99733.97;4469026;32;33749;-78
2023/09/01 01:57:30;;;;;;;1.65;0.77;;;;;;;18.47;61.61;99737.22;4463612;32;33568;-77
2023/09/01 01:59:59;;;;;;;2.30;1.10;;;;;;;18.39;62.08;99741.94;4473594;32;34022;-78
2023/09/01 02:02:28;;;;;;;2.10;1.23;;;;;;;18.54;61.52;99741.25;4470447;32;34500;-78
2023/09/01 02:04:57;;;;;;;2.58;1.35;;;;;;;18.24;62.25;99756.59;4465798;32;32906;-78
2023/09/01 02:07:26;;;;;;;0.75;0.60;;;;;;;18.46;61.76;99749.50;4460259;32;33622;-77
2023/09/01 02:09:55;;;;;;;1.15;0.80;;;;;;;18.51;61.68;99750.13;4471038;32;34139;-78
2023/09/01 02:12:25;;;;;;;2.90;1.20;;;;;;;18.46;61.91;99762.63;4479889;32;34155;-79
2023/09/01 02:14:54;;;;;;;0.88;0.80;;;;;;;18.30;62.31;99762.44;4470758;32;33613;-79
2023/09/01 02:17:23;;;;;;;0.75;0.75;;;;;;;18.44;61.67;99764.47;4472045;32;34664;-78
2023/09/01 02:19:52;;;;;;;1.42;0.80;;;;;;;18.39;62.13;99763.81;4465940;32;34308;-79
2023/09/01 02:22:22;;;;;;;1.02;0.73;;;;;;;18.37;61.92;99760.41;4476343;32;34375;-78
2023/09/01 02:24:52;;;;;;;1.80;0.88;;;;;;;17.92;63.45;99764.94;4468077;32;34143;-79
2023/09/01 02:27:21;;;;;;;1.25;0.88;;;;;;;18.02;63.28;99759.28;4469218;32;33919;-78
2023/09/01 02:29:51;;;;;;;1.20;0.80;;;;;;;18.17;62.20;99763.91;4465557;32;33746;-79
2023/09/01 02:32:19;;;;;;;1.37;0.90;;;;;;;18.12;62.24;99764.09;4466028;32;33517;-79
2023/09/01 02:34:48;;;;;;;1.30;0.80;;;;;;;18.29;61.83;99760.75;4475700;32;33783;-80
2023/09/01 02:37:17;;;;;;;1.75;0.80;;;;;;;18.16;62.18;99767.44;4470978;32;33379;-77
2023/09/01 02:39:46;;;;;;;1.73;1.00;;;;;;;18.13;62.18;99762.31;4458594;32;34781;-78
2023/09/01 02:42:15;;;;;;;0.75;0.57;;;;;;;18.20;61.70;99758.50;4459007;32;33569;-78
2023/09/01 02:44:44;;;;;;;1.30;1.02;;;;;;;18.03;61.92;99766.28;4473578;32;33049;-78
2023/09/01 02:47:14;;;;;;;1.20;0.90;;;;;;;18.11;61.48;99766.78;4482104;32;34254;-79
2023/09/01 02:49:43;;;;;;;1.50;0.98;;;;;;;18.09;61.87;99760.75;4477226;32;34055;-78
2023/09/01 02:52:11;;;;;;;1.27;0.85;;;;;;;18.10;61.67;99763.31;4467823;32;33674;-79
2023/09/01 02:54:40;;;;;;;0.73;0.70;;;;;;;18.07;61.59;99759.94;4461472;32;33833;-79
2023/09/01 02:57:09;;;;;;;1.67;0.98;;;;;;;18.07;61.52;99757.31;4466610;32;34210;-78
2023/09/01 02:59:38;;;;;;;0.88;0.68;;;;;;;17.97;61.93;99754.25;4461266;32;34004;-78
2023/09/01 03:02:08;;;;;;;0.98;0.90;;;;;;;17.91;62.01;99750.13;4460899;32;33992;-78
2023/09/01 03:04:38;;;;;;;1.87;1.05;;;;;;;17.96;62.03;99754.31;4460702;32;34072;-78
2023/09/01 03:07:07;;;;;;;1.95;0.90;;;;;;;17.63;63.51;99754.78;4462355;32;32990;-79
2023/09/01 03:09:38;;;;;;;1.35;1.00;;;;;;;17.66;63.83;99757.25;4466754;32;33909;-78
2023/09/01 03:12:07;;;;;;;1.77;1.00;;;;;;;18.06;61.90;99758.25;4460462;32;34710;-79
2023/09/01 03:14:36;;;;;;;1.58;1.10;;;;;;;18.08;61.43;99764.28;4460403;32;33184;-78
2023/09/01 03:17:06;;;;;;;0.80;0.80;;;;;;;18.17;60.96;99763.03;4460822;32;34538;-78
2023/09/01 03:19:34;;;;;;;0.57;0.57;;;;;;;18.08;61.18;99759.91;4466971;32;33604;-78
2023/09/01 03:22:05;;;;;;;0.95;0.80;;;;;;;17.96;61.60;99762.19;4460884;32;33860;-78
2023/09/01 03:24:34;;;;;;;;;;;;;;;18.04;61.53;99762.72;4461219;32;33226;-79
2023/09/01 03:27:03;;;;;;;0.98;0.57;;;;;;;17.97;61.84;99756.87;4460996;32;33816;-78
2023/09/01 03:29:32;;;;;;;1.40;0.75;;;;;;;17.93;61.83;99765.81;4466577;32;33639;-78
2023/09/01 03:32:01;;;;;;;1.35;0.90;;;;;;;17.85;61.69;99768.72;4472116;32;33520;-78
2023/09/01 03:34:31;;;;;;;0.80;0.68;;;;;;;17.72;61.75;99766.66;4476818;32;34264;-78
2023/09/01 03:37:00;;;;;;;2.12;0.95;;;;;;;17.64;62.25;99767.84;4476561;32;33881;-78
2023/09/01 03:39:30;;;;;;;1.27;0.70;;;;;;;17.51;62.36;99769.25;4476491;32;33849;-77
2023/09/01 03:41:59;;;;;;;1.40;0.90;;;;;;;17.43;62.94;99766.09;4481440;32;32898;-79
2023/09/01 03:44:28;;;;;;;0.82;0.73;;;;;;;17.52;62.58;99764.84;4462652;32;33051;-79
2023/09/01 03:46:58;;;;;;;0.80;0.65;;;;;;;17.48;63.14;99764.13;4476248;32;33667;-78
2023/09/01 03:49:29;;;;;;;3.70;1.37;;;;;;;17.55;62.95;99772.59;4476493;32;35002;-78
2023/09/01 03:51:58;;;;;;;1.62;1.20;;;;;;;17.64;62.70;99774.88;4481172;32;34354;-79
2023/09/01 03:54:27;;;;;;;1.33;1.12;;;;;;;17.62;62.57;99774.91;4470330;32;34154;-78
2023/09/01 03:56:57;;;;;;;1.20;0.70;;;;;;;17.59;62.50;99779.41;4469848;32;33585;-78
2023/09/01 03:59:27;;;;;;;1.90;1.20;;;;;;;17.76;61.68;99782.22;4471975;32;33166;-79
2023/09/01 04:01:55;;;;;;;1.27;0.60;;;;;;;17.62;61.99;99781.94;4473761;32;34566;-78
2023/09/01 04:04:24;;;;;;;1.27;1.05;;;;;;;17.66;61.57;99791.38;4481816;32;33242;-79
2023/09/01 04:06:53;;;;;;;0.93;0.85;;;;;;;17.62;62.05;99784.56;4479589;32;34053;-77
2023/09/01 04:09:22;;;;;;;0.62;0.62;;;;;;;17.63;62.21;99781.00;4469997;31;34525;-78
2023/09/01 04:11:51;;;;;;;2.10;1.20;;;;;;;17.64;62.35;99782.72;4476071;32;33642;-78
2023/09/01 04:14:21;;;;;;;1.27;0.80;;;;;;;17.40;63.17;99782.78;4481867;32;33981;-78
2023/09/01 04:16:50;;;;;;;1.37;0.82;;;;;;;17.72;62.06;99783.25;4469963;32;34644;-78
2023/09/01 04:19:18;;;;;;;0.77;0.70;;;;;;;17.82;61.96;99783.75;4468918;32;34578;-79
2023/09/01 04:21:47;;;;;;;1.08;0.68;;;;;;;17.87;61.69;99790.53;4476037;32;33654;-78
2023/09/01 04:24:16;;;;;;;2.47;0.80;;;;;;;17.91;61.74;99786.84;4476971;32;34073;-78
2023/09/01 04:26:45;;;;;;;0.68;0.65;;;;;;;17.87;61.83;99789.66;4476161;32;33854;-78
2023/09/01 04:29:14;;;;;;;1.35;0.93;;;;;;;17.96;61.46;99789.28;4476068;32;33978;-79
2023/09/01 04:31:44;;;;;;;0.75;0.70;;;;;;;18.02;61.21;99790.78;4469841;32;33630;-77
2023/09/01 04:34:14;;;;;;;2.08;0.80;;;;;;;18.09;60.92;99789.63;4473215;31;33465;-78
2023/09/01 04:36:42;;;;;;;1.08;0.98;;;;;;;18.19;60.42;99787.47;4482403;31;34722;-77
2023/09/01 04:39:17;;;;;;;1.27;0.75;;;;;;;18.09;61.12;99792.25;4474418;32;33972;-77
2023/09/01 04:41:45;;;;;;;0.50;0.50;;;;;;;18.35;60.27;99788.50;4469817;32;33888;-77
2023/09/01 04:44:14;;;;;;;1.62;0.80;;;;;;;18.29;60.53;99789.63;4473222;31;33295;-79
2023/09/01 04:46:45;;;;;;;2.35;1.12;;;;;;;18.22;61.04;99788.19;4479950;32;34138;-78
2023/09/01 04:49:14;;;;;;;0.90;0.80;;;;;;;18.50;60.29;99792.22;4481161;32;33396;-78
2023/09/01 04:51:43;;;;;;;0.95;0.85;;;;;;;18.42;60.74;99779.44;4468144;32;33611;-78
2023/09/01 04:54:12;;;;;;;0.95;0.70;;;;;;;18.57;60.69;99787.56;4466700;32;33626;-78
2023/09/01 04:56:42;;;;;;;1.50;0.98;;;;;;;18.81;60.01;99791.75;4469138;32;33624;-79
2023/09/01 04:59:10;;;;;;;1.40;1.02;;;;;;;18.65;60.67;99785.44;4465119;32;34453;-79
2023/09/01 05:01:40;;;;;;;1.62;0.68;;;;;;;18.93;59.63;99785.06;4460124;32;33439;-78
2023/09/01 05:04:10;;;;;;;1.20;0.90;;;;;;;19.03;59.50;99781.09;4460711;32;33004;-80
2023/09/01 05:06:39;;;;;;;0.93;0.75;;;;;;;18.96;59.93;99782.28;4469273;32;33524;-78
2023/09/01 05:09:08;;;;;;;1.15;0.70;;;;;;;19.07;59.58;99790.53;4478253;32;33425;-78
2023/09/01 05:11:37;;;;;;;1.48;0.70;;;;;;;19.13;59.98;99792.88;4479990;31;33869;-78
2023/09/01 05:14:06;;;;;;;1.10;0.75;;;;;;;19.28;60.26;99795.72;4473159;32;33342;-80
2023/09/01 05:16:35;;;;;;;1.45;0.73;;;;;;;19.33;60.53;99801.59;4464851;32;33400;-78
2023/09/01 05:19:04;;;;;;;1.30;0.68;;;;;;;19.37;60.77;99806.66;4476069;31;34162;-79
2023/09/01 05:21:34;;;;;;;1.58;0.90;;;;;;;19.33;61.21;99805.09;4468676;31;33622;-77
2023/09/01 05:24:03;;;;;;;8.13;1.80;;;;;;;19.54;60.25;99805.00;4479361;31;33201;-78
2023/09/01 05:26:32;;;;;;;1.00;0.52;;;;;;;19.38;60.66;99810.16;4468854;32;34325;-80
2023/09/01 05:29:01;;;;;;;1.87;0.98;;;;;;;19.48;59.03;99808.78;4476534;31;35941;-80
2023/09/01 05:31:30;;;;;;;1.08;0.80;;;;;;;19.36;59.65;99812.00;4474732;32;33809;-80
2023/09/01 05:34:01;;;;;;;1.45;0.93;;;;;;;19.44;58.93;99807.22;4472138;32;33605;-80
2023/09/01 05:36:30;;;;;;;1.40;0.95;;;;;;;19.35;59.61;99810.28;4475993;32;33900;-79
2023/09/01 05:39:00;;;;;;;1.58;0.85;;;;;;;19.69;58.93;99800.78;4475227;32;33697;-80
2023/09/01 05:41:29;;;;;;;1.80;1.07;;;;;;;19.72;58.18;99804.13;4465969;32;33471;-80
2023/09/01 05:43:58;;;;;;;1.67;1.55;;;;;;;19.69;58.79;99808.69;4471247;32;33568;-80
2023/09/01 05:46:27;;;;;;;1.70;1.08;;;;;;;19.86;57.46;99805.22;4475949;32;34303;-80
2023/09/01 05:48:55;;;;;;;2.17;0.90;;;;;;;19.55;59.03;99814.59;4468057;31;33592;-80
2023/09/01 05:51:24;;;;;;;2.03;1.65;;;;;;;19.71;58.97;99812.09;4459992;32;33519;-80
2023/09/01 05:53:53;;;;;;;1.17;0.70;;;;;;;19.80;59.11;99814.28;4468738;32;33795;-80
2023/09/01 05:56:23;;;;;;;1.90;0.75;;;;;;;19.83;59.19;99819.38;4460694;32;33934;-81
2023/09/01 05:58:52;;;;;;;1.30;0.80;;;;;;;19.98;58.49;99813.38;4458702;32;33055;-80
2023/09/01 06:01:21;;;;;;;1.37;0.77;;;;;;;20.01;58.14;99817.63;4469373;32;34425;-79
2023/09/01 06:03:50;;;;;;;1.27;0.70;;;;;;;20.15;58.10;99822.19;4473577;32;33312;-80
2023/09/01 06:06:19;;;;;;;1.45;0.88;;;;;;;20.15;58.23;99822.19;4468580;32;34876;-80
2023/09/01 06:08:49;;;;;;;2.12;0.90;;;;;;;20.13;58.41;99826.72;4467548;32;33606;-81
2023/09/01 06:11:18;;;;;;;1.75;1.00;;;;;;;20.32;57.92;99822.22;4467496;32;33666;-79
2023/09/01 06:13:49;;;;;;;0.95;0.70;;;;;;;20.29;58.16;99826.75;4474689;32;34128;-80
2023/09/01 06:16:17;;;;;;;;;;;;;;;20.31;58.35;99820.50;4469372;32;34001;-79
2023/09/01 06:18:46;;;;;;;2.40;0.98;;;;;;;20.31;58.69;99815.22;4461587;32;34221;-81
2023/09/01 06:21:16;;;;;;;0.95;0.60;;;;;;;20.42;58.80;99812.03;4467293;32;33974;-79
2023/09/01 06:23:45;;;;;;;2.10;0.75;;;;;;;20.83;57.86;99819.59;4463124;32;33260;-80
2023/09/01 06:26:14;;;;;;;1.42;0.62;;;;;;;20.69;58.06;99825.59;4466909;32;34428;-79
2023/09/01 06:28:43;;;;;;;1.65;0.90;;;;;;;20.59;58.47;99816.47;4471178;32;33799;-80
2023/09/01 06:31:14;;;;;;;1.70;0.98;;;;;;;20.66;58.11;99816.06;4473311;32;33924;-80
2023/09/01 06:33:43;;;;;;;1.42;1.00;;;;;;;20.97;56.44;99824.97;4461269;32;32540;-80
2023/09/01 06:36:13;;;;;;;0.73;0.60;;;;;;;20.78;56.60;99817.19;4464067;32;33488;-80
2023/09/01 06:38:42;;;;;;;1.53;0.40;;;;;;;20.93;56.42;99815.50;4482598;32;33213;-80
2023/09/01 06:41:11;;;;;;;1.48;0.70;;;;;;;20.97;56.45;99818.81;4468173;32;33809;-81
2023/09/01 06:43:41;;;;;;;1.95;0.98;;;;;;;20.66;57.17;99818.69;4461016;32;34007;-80
2023/09/01 06:46:09;;;;;;;1.40;0.98;;;;;;;20.58;56.89;99818.22;4471383;32;33567;-81
2023/09/01 06:48:40;;;;;;;0.82;0.50;;;;;;;20.37;58.46;99828.09;4469405;32;34799;-81
2023/09/01 06:51:09;;;;;;;1.20;0.80;;;;;;;20.95;55.87;99826.84;4465358;32;34783;-81
2023/09/01 06:53:38;;;;;;;1.50;0.77;;;;;;;21.27;54.91;99827.72;4471862;32;33759;-80
2023/09/01 06:56:07;;;;;;;0.75;0.50;;;;;;;21.56;51.63;99835.81;4470440;32;33540;-80
2023/09/01 06:58:36;;;;;;;1.10;0.70;;;;;;;21.60;51.15;99834.72;4471670;32;34676;-80
2023/09/01 07:01:08;;;;;;;0.90;0.70;;;;;;;21.58;51.49;99847.16;4482010;32;33331;-80
2023/09/01 07:03:37;;;;;;;1.58;1.48;;;;;;;21.86;50.53;99856.97;4474975;32;32946;-81
2023/09/01 07:06:07;;;;;;;0.70;0.62;;;;;;;21.70;50.72;99854.38;4467096;32;34479;-80
2023/09/01 07:08:36;;;;;;;0.63;0.53;;;;;;;21.70;51.04;99851.75;4471320;32;33744;-80
2023/09/01 07:11:09;;;;;;;1.50;0.55;;;;;;;22.08;49.46;99853.09;4481743;32;34860;-80
2023/09/01 07:13:38;;;;;;;0.75;0.68;;;;;;;22.20;48.36;99855.06;4476953;32;33407;-81
2023/09/01 07:16:07;;;;;;;0.68;0.55;;;;;;;21.84;49.78;99856.25;4479116;32;34675;-80
2023/09/01 07:18:35;;;;;;;0.88;0.70;;;;;;;22.24;49.84;99850.47;4476503;32;33713;-80
2023/09/01 07:21:04;;;;;;;0.45;0.37;;;;;;;22.25;48.98;99855.63;4476280;31;33140;-79
2023/09/01 07:23:35;;;;;;;2.70;1.33;;;;;;;22.29;48.76;99864.25;4465003;32;32833;-81
2023/09/01 07:26:06;;;;;;;2.47;0.77;;;;;;;22.21;49.30;99859.41;4460452;32;34348;-79
2023/09/01 07:28:35;;;;;;;1.83;0.70;;;;;;;22.69;47.81;99860.09;4465348;32;34747;-80
2023/09/01 07:31:10;;;;;;;1.00;0.60;;;;;;;22.60;47.51;99860.62;4467625;32;34563;-81
2023/09/01 07:33:41;;;;;;;2.17;1.98;;;;;;;22.42;48.75;99867.00;4466293;32;33472;-80
2023/09/01 07:36:11;;;;;;;0.50;0.40;;;;;;;22.48;49.12;99867.50;4460736;32;34412;-80
2023/09/01 07:38:41;;;;;;;0.43;0.43;;;;;;;22.22;50.71;99876.97;4460811;32;33838;-80
2023/09/01 07:41:10;;;;;;;1.70;0.73;;;;;;;22.68;49.37;99868.09;4469479;32;33358;-81
2023/09/01 07:43:41;;;;;;;0.75;0.57;;;;;;;22.79;50.77;99870.94;4476971;32;33187;-80
2023/09/01 07:46:10;;;;;;;0.82;0.73;;;;;;;22.73;51.81;99869.50;4481863;32;34284;-80
2023/09/01 07:48:38;;;;;;;0.77;0.65;;;;;;;22.76;50.53;99873.75;4476411;32;34775;-81
2023/09/01 07:51:08;;;;;;;0.43;0.43;;;;;;;23.04;50.11;99869.47;4476683;32;34489;-80
2023/09/01 07:53:36;;;;;;;2.10;0.80;;;;;;;22.78;51.46;99869.22;4476940;32;32980;-81
2023/09/01 07:56:06;;;;;;;0.55;0.50;;;;;;;23.18;50.77;99864.16;4481965;32;33589;-78
2023/09/01 07:58:35;;;;;;;0.95;0.62;;;;;;;23.15;50.69;99861.72;4475733;32;33666;-79
2023/09/01 08:01:04;;;;;;;0.80;0.60;;;;;;;23.15;50.73;99867.00;4476157;32;33714;-78
2023/09/01 08:03:34;;;;;;;1.30;0.80;;;;;;;23.72;49.85;99861.56;4468642;32;33694;-78
2023/09/01 08:06:04;;;;;;;0.50;0.50;;;;;;;23.65;49.13;99852.31;4474973;32;34192;-78
2023/09/01 08:08:33;;;;;;;1.23;0.75;;;;;;;23.84;48.97;99860.81;4471804;32;34794;-78
2023/09/01 08:11:02;;;;;;;0.40;0.40;;;;;;;24.49;46.83;99864.50;4473948;32;34032;-78
2023/09/01 08:13:32;;;;;;;0.30;0.30;;;;;;;24.50;47.27;99866.22;4468774;32;33983;-78
2023/09/01 08:16:01;;;;;;;4.77;1.10;;;;;;;24.48;47.65;99873.41;4471733;32;35618;-79
2023/09/01 08:18:30;;;;;;;1.48;0.75;;;;;;;24.74;46.44;99873.41;4480166;32;33605;-79
2023/09/01 08:20:58;;;;;;;1.12;0.55;;;;;;;25.07;44.53;99873.72;4467122;32;33515;-80
2023/09/01 08:23:27;;;;;;;1.48;0.60;;;;;;;25.19;43.85;99880.00;4469273;32;34412;-79
2023/09/01 08:25:56;;;;;;;0.80;0.50;;;;;;;25.40;44.18;99872.31;4465440;32;33546;-79
2023/09/01 08:28:28;;;;;;;1.17;0.73;;;;;;;25.51;44.18;99874.16;4470240;32;34610;-79
2023/09/01 08:31:04;;;;;;;0.62;0.50;;;;;;;25.64;43.81;99877.66;4465582;32;33506;-78
2023/09/01 08:33:33;;;;;;;1.90;0.93;;;;;;;25.55;42.94;99875.66;4468632;32;33276;-78
2023/09/01 08:36:03;;;;;;;1.67;0.70;;;;;;;25.64;44.43;99882.97;4468492;32;34452;-80
2023/09/01 08:38:32;;;;;;;0.32;0.30;;;;;;;25.55;43.66;99884.47;4475722;32;33454;-79
2023/09/01 08:41:02;;;;;;;2.00;0.52;;;;;;;25.71;43.71;99876.25;4480460;32;33485;-79
2023/09/01 08:43:34;;;;;;;1.08;0.50;;;;;;;25.81;44.28;99875.56;4460297;32;33057;-79
2023/09/01 08:46:05;;;;;;;1.37;0.68;;;;;;;25.57;44.21;99873.75;4468928;32;32927;-79
2023/09/01 08:48:37;;;;;;;1.00;0.60;;;;;;;25.53;44.83;99872.25;4467279;32;34231;-79
2023/09/01 08:51:06;;;;;;;1.65;0.70;;;;;;;25.60;44.44;99868.19;4473174;32;33775;-79
2023/09/01 08:53:35;;;;;;;0.55;0.50;;;;;;;25.77;44.37;99869.63;4469873;32;33468;-79
2023/09/01 08:56:04;;;;;;;1.05;0.77;;;;;;;25.64;44.67;99869.69;4467262;32;34511;-80
2023/09/01 08:58:33;;;;;;;1.83;0.80;;;;;;;25.70;44.43;99873.69;4466924;32;34748;-80
2023/09/01 09:01:03;;;;;;;1.30;0.52;;;;;;;25.96;44.08;99871.81;4464351;32;34546;-79
2023/09/01 09:03:33;;;;;;;0.88;0.45;;;;;;;26.13;43.88;99873.19;4479252;32;33158;-79
2023/09/01 09:06:03;;;;;;;;;;;;;;;25.86;44.79;99874.28;4463914;32;33383;-79
2023/09/01 09:08:32;;;;;;;0.68;0.40;;;;;;;26.32;43.88;99872.66;4467331;32;33723;-80
2023/09/01 09:11:00;;;;;;;1.15;0.52;;;;;;;26.42;42.44;99870.16;4465572;32;34371;-79
2023/09/01 09:13:31;;;;;;;2.03;0.90;;;;;;;26.18;42.37;99863.06;4475063;32;33285;-79
2023/09/01 09:16:10;;;;;;;0.93;0.50;;;;;;;26.42;42.29;99864.81;4464746;32;33683;-78
2023/09/01 09:18:42;;;;;;;0.75;0.50;;;;;;;26.39;41.63;99873.88;4468390;32;33942;-79
2023/09/01 09:21:26;;;;;;;0.40;0.30;;;;;;;26.56;41.98;99862.81;4466711;32;34586;-78
2023/09/01 09:23:56;;;;;;;2.22;1.08;;;;;;;26.53;43.27;99870.16;4467895;32;33331;-80
2023/09/01 09:26:43;;;;;;;0.60;0.40;;;;;;;26.51;41.84;99869.44;4464462;32;34233;-79
2023/09/01 09:29:15;;;;;;;1.87;1.33;;;;;;;26.62;41.79;99864.16;4471250;32;34982;-78
2023/09/01 09:31:44;;;;;;;1.15;0.43;;;;;;;26.74;41.57;99862.38;4468806;32;32357;-77
2023/09/01 09:34:23;;;;;;;0.20;0.20;;;;;;;26.71;41.23;99860.78;4462134;32;33054;-79
2023/09/01 09:36:52;;;;;;;0.77;0.45;;;;;;;26.83;41.55;99858.16;4466577;32;33425;-79
2023/09/01 09:39:25;;;;;;;0.75;0.55;;;;;;;26.88;40.09;99864.78;4463500;32;33163;-79
2023/09/01 09:41:54;;;;;;;1.03;0.50;;;;;;;26.78;39.98;99855.84;4477213;32;33631;-78
2023/09/01 09:44:24;;;;;;;0.30;0.30;;;;;;;27.06;40.38;99859.81;4466696;32;33178;-78
2023/09/01 09:46:54;;;;;;;1.50;0.50;;;;;;;27.08;40.11;99854.38;4475034;32;34409;-80
2023/09/01 09:49:25;;;;;;;1.65;0.82;;;;;;;27.15;39.79;99856.44;4475107;32;34451;-78
2023/09/01 09:51:54;;;;;;;0.30;0.30;;;;;;;27.18;39.54;99850.00;4474113;32;33881;-79
2023/09/01 09:54:24;;;;;;;2.45;0.70;;;;;;;27.12;39.29;99854.03;4464452;32;33378;-79
2023/09/01 09:56:53;;;;;;;1.45;0.62;;;;;;;27.02;39.90;99850.41;4474674;32;33501;-79
2023/09/01 09:59:25;;;;;;;1.00;0.60;;;;;;;27.06;39.41;99851.84;4471226;32;34909;-79
2023/09/01 10:01:56;;;;;;;0.62;0.50;;;;;;;27.11;39.68;99852.34;4470531;32;33443;-80
2023/09/01 10:04:27;;;;;;;0.57;0.30;;;;;;;27.30;39.71;99857.03;4473261;32;33489;-79
2023/09/01 10:06:56;;;;;;;1.35;0.50;;;;;;;27.33;40.56;99850.63;4465956;31;32929;-79
2023/09/01 10:09:25;;;;;;;0.93;0.50;;;;;;;27.40;38.28;99849.16;4473446;31;33792;-79
2023/09/01 10:11:54;;;;;;;0.65;0.40;;;;;;;27.48;38.82;99845.91;4472314;32;34633;-79
2023/09/01 10:14:24;;;;;;;0.95;0.70;;;;;;;27.59;38.65;99845.84;4468074;32;33339;-79
2023/09/01 10:16:53;;;;;;;1.00;0.87;;;;;;;27.53;38.53;99846.38;4476812;31;34610;-79
2023/09/01 10:19:23;;;;;;;0.80;0.55;;;;;;;27.64;38.71;99852.53;4474580;32;33670;-79
2023/09/01 10:21:53;;;;;;;1.08;0.57;;;;;;;27.58;39.28;99850.34;4467274;32;33019;-79
2023/09/01 10:24:23;;;;;;;0.47;0.40;;;;;;;27.53;39.64;99849.88;4484248;31;33759;-78
2023/09/01 10:27:07;;;;;;;1.37;0.80;;;;;;;27.52;37.26;99842.00;4481776;32;33693;-79
2023/09/01 10:29:38;;;;;;;1.48;0.60;;;;;;;27.86;38.97;99846.28;4474231;32;33589;-79
2023/09/01 10:32:20;;;;;;;0.75;0.50;;;;;;;27.91;37.63;99847.72;4470186;32;33743;-79
2023/09/01 10:34:52;;;;;;;0.25;0.22;;;;;;;28.00;37.42;99850.47;4471223;32;34313;-79
2023/09/01 10:37:27;;;;;;;0.40;0.40;;;;;;;28.05;36.40;99842.94;4468184;32;33702;-80
2023/09/01 10:39:56;;;;;;;0.62;0.40;;;;;;;27.97;35.89;99850.72;4473378;32;34916;-78
2023/09/01 10:42:40;;;;;;;0.60;0.40;;;;;;;28.17;36.21;99838.38;4468520;32;33821;-80
2023/09/01 10:45:11;;;;;;;0.77;0.45;;;;;;;28.12;35.47;99829.91;4467570;32;32958;-80
2023/09/01 10:47:43;;;;;;;0.47;0.40;;;;;;;27.93;36.07;99841.28;4470761;32;34508;-79
2023/09/01 10:50:12;;;;;;;1.20;0.45;;;;;;;28.23;35.12;99835.19;4467844;32;33413;-80
2023/09/01 10:52:44;;;;;;;1.33;0.57;;;;;;;27.99;35.64;99838.09;4473946;32;34064;-79
2023/09/01 10:55:13;;;;;;;0.28;0.28;;;;;;;28.16;36.86;99833.19;4468674;32;33266;-78
2023/09/01 10:57:44;;;;;;;0.40;0.40;;;;;;;28.02;36.71;99837.84;4471062;32;33430;-78
2023/09/01 11:00:26;;;;;;;1.17;0.50;;;;;;;28.15;35.94;99829.69;4459778;32;34132;-80
2023/09/01 11:03:28;;;;;;;1.35;0.68;;;;;;;28.41;36.05;99826.59;4464273;32;34115;-79
2023/09/01 11:05:57;;;;;;;1.15;0.40;;;;;;;28.53;35.55;99830.91;4466834;32;32600;-78
2023/09/01 11:08:27;;;;;;;2.00;0.80;;;;;;;28.27;36.25;99833.97;4460539;32;33654;-79
2023/09/01 11:11:00;;;;;;;0.52;0.52;;;;;;;28.39;36.01;99834.75;4462450;32;33695;-79
2023/09/01 11:13:29;;;;;;;0.40;0.40;;;;;;;28.52;36.07;99831.91;4464207;32;33221;-78
2023/09/01 11:15:58;;;;;;;0.68;0.37;;;;;;;28.49;35.24;99835.69;4461123;32;33292;-80
2023/09/01 11:18:26;;;;;;;1.83;0.47;;;;;;;28.47;36.41;99820.78;4470036;32;33897;-79
2023/09/01 11:20:57;;;;;;;0.35;0.22;;;;;;;28.49;35.75;99824.16;4464562;32;34111;-79
2023/09/01 11:23:28;;;;;;;0.90;0.65;;;;;;;28.73;35.55;99818.53;4466066;32;34769;-78
2023/09/01 11:25:57;;;;;;;1.40;0.60;;;;;;;28.93;35.01;99827.47;4466082;32;34215;-79
2023/09/01 11:28:27;;;;;;;0.47;0.37;;;;;;;28.94;34.08;99818.47;4468027;31;33401;-78
2023/09/01 11:30:57;;;;;;;0.45;0.30;;;;;;;29.08;34.83;99827.97;4463089;32;33673;-79
2023/09/01 11:33:27;;;;;;;0.90;0.47;;;;;;;29.28;34.33;99829.69;4468955;32;32632;-80
2023/09/01 11:36:05;;;;;;;1.12;0.60;;;;;;;29.24;33.91;99825.63;4470896;32;34049;-79
2023/09/01 11:38:35;;;;;;;0.57;0.40;;;;;;;29.10;33.44;99828.69;4467329;31;33519;-79
2023/09/01 11:41:05;;;;;;;1.33;0.55;;;;;;;29.26;34.75;99829.00;4466205;31;33626;-79
2023/09/01 11:43:34;;;;;;;0.30;0.30;;;;;;;29.26;33.44;99829.00;4461967;32;34366;-81
2023/09/01 11:46:08;;;;;;;0.68;0.35;;;;;;;29.38;33.02;99821.69;4462412;31;33043;-80
2023/09/01 11:48:37;;;;;;;0.85;0.47;;;;;;;29.51;33.70;99821.47;4469269;32;35365;-79